sensor_id;sensor_type;location;lat;lon;timestamp;P1;durP1;ratioP1;P2;durP2;ratioP2
73733;SDS011;62039;50.000;9.064;2022-08-21T00:01:34;2.97;;;2.67;;
73733;SDS011;62039;50.000;9.064;2022-08-21T00:04:03;3.00;;;2.70;;
73733;SDS011;62039;50.000;9.064;2022-08-21T00:06:30;2.97;;;2.70;;
73733;SDS011;62039;50.000;9.064;2022-08-21T00:08:57;3.33;;;2.60;;
73733;SDS011;62039;50.000;9.064;2022-08-21T00:11:30;4.33;;;2.80;;
73733;SDS011;62039;50.000;9.064;2022-08-21T00:13:58;3.07;;;2.77;;
73733;SDS011;62039;50.000;9.064;2022-08-21T00:16:25;2.60;;;2.40;;
73733;SDS011;62039;50.000;9.064;2022-08-21T00:18:53;3.30;;;2.80;;
73733;SDS011;62039;50.000;9.064;2022-08-21T00:21:20;3.13;;;2.47;;
73733;SDS011;62039;50.000;9.064;2022-08-21T00:23:46;2.90;;;2.70;;
73733;SDS011;62039;50.000;9.064;2022-08-21T00:26:13;3.20;;;2.90;;
73733;SDS011;62039;50.000;9.064;2022-08-21T00:28:39;3.30;;;3.00;;
73733;SDS011;62039;50.000;9.064;2022-08-21T00:31:06;3.53;;;2.80;;
73733;SDS011;62039;50.000;9.064;2022-08-21T00:33:33;3.07;;;2.33;;
73733;SDS011;62039;50.000;9.064;2022-08-21T00:36:01;2.80;;;2.43;;
73733;SDS011;62039;50.000;9.064;2022-08-21T00:38:28;2.13;;;2.03;;
73733;SDS011;62039;50.000;9.064;2022-08-21T00:40:56;2.93;;;2.73;;
73733;SDS011;62039;50.000;9.064;2022-08-21T00:43:44;2.70;;;2.50;;
73733;SDS011;62039;50.000;9.064;2022-08-21T00:46:11;2.80;;;2.53;;
73733;SDS011;62039;50.000;9.064;2022-08-21T00:48:38;3.40;;;2.80;;
73733;SDS011;62039;50.000;9.064;2022-08-21T00:51:07;3.13;;;2.83;;
73733;SDS011;62039;50.000;9.064;2022-08-21T00:53:36;3.40;;;2.77;;
73733;SDS011;62039;50.000;9.064;2022-08-21T00:56:05;3.17;;;2.87;;
73733;SDS011;62039;50.000;9.064;2022-08-21T00:58:36;3.30;;;3.00;;
73733;SDS011;62039;50.000;9.064;2022-08-21T01:01:06;3.03;;;2.60;;
73733;SDS011;62039;50.000;9.064;2022-08-21T01:03:34;3.17;;;2.97;;
73733;SDS011;62039;50.000;9.064;2022-08-21T01:06:02;2.87;;;2.67;;
73733;SDS011;62039;50.000;9.064;2022-08-21T01:08:30;6.60;;;2.90;;
73733;SDS011;62039;50.000;9.064;2022-08-21T01:10:58;2.60;;;2.40;;
73733;SDS011;62039;50.000;9.064;2022-08-21T01:13:31;2.87;;;2.57;;
73733;SDS011;62039;50.000;9.064;2022-08-21T01:16:00;2.60;;;2.40;;
73733;SDS011;62039;50.000;9.064;2022-08-21T01:18:31;3.27;;;2.27;;
73733;SDS011;62039;50.000;9.064;2022-08-21T01:21:03;3.60;;;2.57;;
73733;SDS011;62039;50.000;9.064;2022-08-21T01:23:32;3.50;;;2.90;;
73733;SDS011;62039;50.000;9.064;2022-08-21T01:26:00;3.40;;;2.40;;
73733;SDS011;62039;50.000;9.064;2022-08-21T01:28:26;3.00;;;2.70;;
73733;SDS011;62039;50.000;9.064;2022-08-21T01:30:56;2.67;;;2.47;;
73733;SDS011;62039;50.000;9.064;2022-08-21T01:33:24;2.97;;;2.53;;
73733;SDS011;62039;50.000;9.064;2022-08-21T01:35:51;2.93;;;2.73;;
73733;SDS011;62039;50.000;9.064;2022-08-21T01:38:19;2.80;;;2.60;;
73733;SDS011;62039;50.000;9.064;2022-08-21T01:40:45;3.13;;;2.80;;
73733;SDS011;62039;50.000;9.064;2022-08-21T01:43:12;3.53;;;3.23;;
73733;SDS011;62039;50.000;9.064;2022-08-21T01:45:39;3.70;;;3.40;;
73733;SDS011;62039;50.000;9.064;2022-08-21T01:48:05;3.80;;;3.50;;
73733;SDS011;62039;50.000;9.064;2022-08-21T01:50:32;3.83;;;3.53;;
73733;SDS011;62039;50.000;9.064;2022-08-21T01:52:58;3.23;;;2.70;;
73733;SDS011;62039;50.000;9.064;2022-08-21T01:55:26;3.93;;;3.10;;
73733;SDS011;62039;50.000;9.064;2022-08-21T01:57:53;4.23;;;3.33;;
73733;SDS011;62039;50.000;9.064;2022-08-21T02:00:21;3.23;;;3.00;;
73733;SDS011;62039;50.000;9.064;2022-08-21T02:02:49;2.97;;;2.77;;
73733;SDS011;62039;50.000;9.064;2022-08-21T02:05:16;4.00;;;3.20;;
73733;SDS011;62039;50.000;9.064;2022-08-21T02:07:43;3.30;;;3.03;;
73733;SDS011;62039;50.000;9.064;2022-08-21T02:10:13;3.50;;;3.20;;
73733;SDS011;62039;50.000;9.064;2022-08-21T02:12:43;3.47;;;3.17;;
73733;SDS011;62039;50.000;9.064;2022-08-21T02:15:10;3.30;;;3.00;;
73733;SDS011;62039;50.000;9.064;2022-08-21T02:17:38;3.80;;;3.00;;
73733;SDS011;62039;50.000;9.064;2022-08-21T02:20:06;3.97;;;3.57;;
73733;SDS011;62039;50.000;9.064;2022-08-21T02:22:34;3.40;;;3.17;;
73733;SDS011;62039;50.000;9.064;2022-08-21T02:25:00;3.33;;;3.07;;
73733;SDS011;62039;50.000;9.064;2022-08-21T02:27:27;3.60;;;3.30;;
73733;SDS011;62039;50.000;9.064;2022-08-21T02:29:56;3.83;;;2.87;;
73733;SDS011;62039;50.000;9.064;2022-08-21T02:32:23;3.10;;;2.77;;
73733;SDS011;62039;50.000;9.064;2022-08-21T02:34:50;3.13;;;2.83;;
73733;SDS011;62039;50.000;9.064;2022-08-21T02:37:16;3.70;;;3.10;;
73733;SDS011;62039;50.000;9.064;2022-08-21T02:39:43;3.50;;;2.93;;
73733;SDS011;62039;50.000;9.064;2022-08-21T02:42:10;2.80;;;2.60;;
73733;SDS011;62039;50.000;9.064;2022-08-21T02:44:36;2.73;;;2.53;;
73733;SDS011;62039;50.000;9.064;2022-08-21T02:47:04;2.97;;;2.67;;
73733;SDS011;62039;50.000;9.064;2022-08-21T02:49:31;2.90;;;2.47;;
73733;SDS011;62039;50.000;9.064;2022-08-21T02:51:57;2.87;;;2.63;;
73733;SDS011;62039;50.000;9.064;2022-08-21T02:54:24;3.00;;;2.70;;
73733;SDS011;62039;50.000;9.064;2022-08-21T02:56:51;3.40;;;2.73;;
73733;SDS011;62039;50.000;9.064;2022-08-21T02:59:17;3.03;;;2.73;;
73733;SDS011;62039;50.000;9.064;2022-08-21T03:01:44;3.07;;;2.77;;
73733;SDS011;62039;50.000;9.064;2022-08-21T03:04:12;2.80;;;2.60;;
73733;SDS011;62039;50.000;9.064;2022-08-21T03:06:38;2.77;;;2.57;;
73733;SDS011;62039;50.000;9.064;2022-08-21T03:09:05;3.13;;;2.83;;
73733;SDS011;62039;50.000;9.064;2022-08-21T03:11:31;3.17;;;2.87;;
73733;SDS011;62039;50.000;9.064;2022-08-21T03:13:58;3.03;;;2.80;;
73733;SDS011;62039;50.000;9.064;2022-08-21T03:16:25;4.40;;;3.87;;
73733;SDS011;62039;50.000;9.064;2022-08-21T03:18:51;3.90;;;3.50;;
73733;SDS011;62039;50.000;9.064;2022-08-21T03:21:19;3.00;;;2.70;;
73733;SDS011;62039;50.000;9.064;2022-08-21T03:23:46;3.30;;;2.83;;
73733;SDS011;62039;50.000;9.064;2022-08-21T03:26:13;3.50;;;3.20;;
73733;SDS011;62039;50.000;9.064;2022-08-21T03:28:41;3.40;;;3.10;;
73733;SDS011;62039;50.000;9.064;2022-08-21T03:31:07;2.83;;;2.63;;
73733;SDS011;62039;50.000;9.064;2022-08-21T03:33:34;3.40;;;3.10;;
73733;SDS011;62039;50.000;9.064;2022-08-21T03:36:03;3.33;;;3.03;;
73733;SDS011;62039;50.000;9.064;2022-08-21T03:38:33;3.33;;;3.13;;
73733;SDS011;62039;50.000;9.064;2022-08-21T03:41:01;2.60;;;2.40;;
73733;SDS011;62039;50.000;9.064;2022-08-21T03:43:27;3.33;;;2.60;;
73733;SDS011;62039;50.000;9.064;2022-08-21T03:45:57;2.80;;;2.60;;
73733;SDS011;62039;50.000;9.064;2022-08-21T03:48:24;3.10;;;2.63;;
73733;SDS011;62039;50.000;9.064;2022-08-21T03:50:51;2.43;;;2.23;;
73733;SDS011;62039;50.000;9.064;2022-08-21T03:53:18;2.53;;;2.33;;
73733;SDS011;62039;50.000;9.064;2022-08-21T03:55:47;2.70;;;2.50;;
73733;SDS011;62039;50.000;9.064;2022-08-21T03:58:15;2.40;;;2.20;;
73733;SDS011;62039;50.000;9.064;2022-08-21T04:00:43;2.70;;;2.50;;
73733;SDS011;62039;50.000;9.064;2022-08-21T04:03:10;3.17;;;2.87;;
73733;SDS011;62039;50.000;9.064;2022-08-21T04:05:37;3.57;;;2.60;;
73733;SDS011;62039;50.000;9.064;2022-08-21T04:08:04;2.57;;;2.37;;
73733;SDS011;62039;50.000;9.064;2022-08-21T04:10:33;3.27;;;2.67;;
73733;SDS011;62039;50.000;9.064;2022-08-21T04:13:02;2.80;;;2.60;;
73733;SDS011;62039;50.000;9.064;2022-08-21T04:15:29;2.90;;;2.60;;
73733;SDS011;62039;50.000;9.064;2022-08-21T04:17:55;3.00;;;2.70;;
73733;SDS011;62039;50.000;9.064;2022-08-21T04:20:22;3.03;;;2.77;;
73733;SDS011;62039;50.000;9.064;2022-08-21T04:22:49;4.17;;;2.80;;
73733;SDS011;62039;50.000;9.064;2022-08-21T04:25:17;3.00;;;2.70;;
73733;SDS011;62039;50.000;9.064;2022-08-21T04:27:44;2.97;;;2.77;;
73733;SDS011;62039;50.000;9.064;2022-08-21T04:30:13;3.30;;;3.00;;
73733;SDS011;62039;50.000;9.064;2022-08-21T04:32:41;3.80;;;2.93;;
73733;SDS011;62039;50.000;9.064;2022-08-21T04:35:09;2.83;;;2.63;;
73733;SDS011;62039;50.000;9.064;2022-08-21T04:37:37;3.13;;;2.83;;
73733;SDS011;62039;50.000;9.064;2022-08-21T04:40:08;2.87;;;2.57;;
73733;SDS011;62039;50.000;9.064;2022-08-21T04:42:40;2.80;;;2.60;;
73733;SDS011;62039;50.000;9.064;2022-08-21T04:45:09;2.80;;;2.57;;
73733;SDS011;62039;50.000;9.064;2022-08-21T04:47:37;2.83;;;2.63;;
73733;SDS011;62039;50.000;9.064;2022-08-21T04:50:18;3.20;;;2.90;;
73733;SDS011;62039;50.000;9.064;2022-08-21T04:52:45;3.50;;;2.77;;
73733;SDS011;62039;50.000;9.064;2022-08-21T04:55:12;3.03;;;2.83;;
73733;SDS011;62039;50.000;9.064;2022-08-21T04:57:39;3.03;;;2.83;;
73733;SDS011;62039;50.000;9.064;2022-08-21T05:00:14;2.87;;;2.67;;
73733;SDS011;62039;50.000;9.064;2022-08-21T05:02:44;2.90;;;2.70;;
73733;SDS011;62039;50.000;9.064;2022-08-21T05:05:10;2.73;;;2.53;;
73733;SDS011;62039;50.000;9.064;2022-08-21T05:07:37;2.80;;;2.60;;
73733;SDS011;62039;50.000;9.064;2022-08-21T05:10:08;3.10;;;2.90;;
73733;SDS011;62039;50.000;9.064;2022-08-21T05:12:37;3.03;;;2.73;;
73733;SDS011;62039;50.000;9.064;2022-08-21T05:15:04;2.83;;;2.63;;
73733;SDS011;62039;50.000;9.064;2022-08-21T05:17:34;3.47;;;2.80;;
73733;SDS011;62039;50.000;9.064;2022-08-21T05:20:02;3.33;;;3.03;;
73733;SDS011;62039;50.000;9.064;2022-08-21T05:22:29;2.87;;;2.60;;
73733;SDS011;62039;50.000;9.064;2022-08-21T05:24:56;2.93;;;2.73;;
73733;SDS011;62039;50.000;9.064;2022-08-21T05:27:23;2.87;;;2.57;;
73733;SDS011;62039;50.000;9.064;2022-08-21T05:29:53;2.90;;;2.70;;
73733;SDS011;62039;50.000;9.064;2022-08-21T05:32:19;2.97;;;2.77;;
73733;SDS011;62039;50.000;9.064;2022-08-21T05:34:46;2.70;;;2.50;;
73733;SDS011;62039;50.000;9.064;2022-08-21T05:37:14;3.20;;;2.90;;
73733;SDS011;62039;50.000;9.064;2022-08-21T05:39:40;3.30;;;3.00;;
73733;SDS011;62039;50.000;9.064;2022-08-21T05:42:27;3.73;;;2.77;;
73733;SDS011;62039;50.000;9.064;2022-08-21T05:44:53;2.80;;;2.53;;
73733;SDS011;62039;50.000;9.064;2022-08-21T05:47:20;3.20;;;2.90;;
73733;SDS011;62039;50.000;9.064;2022-08-21T05:49:46;3.30;;;2.73;;
73733;SDS011;62039;50.000;9.064;2022-08-21T05:52:17;4.20;;;3.00;;
73733;SDS011;62039;50.000;9.064;2022-08-21T05:54:45;3.10;;;2.90;;
73733;SDS011;62039;50.000;9.064;2022-08-21T05:57:11;3.30;;;3.00;;
73733;SDS011;62039;50.000;9.064;2022-08-21T05:59:38;3.57;;;3.27;;
73733;SDS011;62039;50.000;9.064;2022-08-21T06:02:05;3.63;;;3.17;;
73733;SDS011;62039;50.000;9.064;2022-08-21T06:04:34;3.50;;;3.20;;
73733;SDS011;62039;50.000;9.064;2022-08-21T06:07:01;2.83;;;2.63;;
73733;SDS011;62039;50.000;9.064;2022-08-21T06:09:29;3.20;;;2.90;;
73733;SDS011;62039;50.000;9.064;2022-08-21T06:11:56;3.40;;;3.07;;
73733;SDS011;62039;50.000;9.064;2022-08-21T06:14:22;4.00;;;3.30;;
73733;SDS011;62039;50.000;9.064;2022-08-21T06:16:49;3.53;;;3.23;;
73733;SDS011;62039;50.000;9.064;2022-08-21T06:19:16;4.70;;;4.10;;
73733;SDS011;62039;50.000;9.064;2022-08-21T06:21:42;3.30;;;3.00;;
73733;SDS011;62039;50.000;9.064;2022-08-21T06:24:09;3.83;;;3.53;;
73733;SDS011;62039;50.000;9.064;2022-08-21T06:26:37;3.60;;;3.30;;
73733;SDS011;62039;50.000;9.064;2022-08-21T06:29:03;3.67;;;3.37;;
73733;SDS011;62039;50.000;9.064;2022-08-21T06:31:30;5.47;;;3.17;;
73733;SDS011;62039;50.000;9.064;2022-08-21T06:33:56;3.57;;;3.27;;
73733;SDS011;62039;50.000;9.064;2022-08-21T06:36:23;4.43;;;3.67;;
73733;SDS011;62039;50.000;9.064;2022-08-21T06:38:50;4.20;;;3.80;;
73733;SDS011;62039;50.000;9.064;2022-08-21T06:41:17;3.70;;;3.40;;
73733;SDS011;62039;50.000;9.064;2022-08-21T06:43:50;3.80;;;3.50;;
73733;SDS011;62039;50.000;9.064;2022-08-21T06:46:17;3.60;;;3.10;;
73733;SDS011;62039;50.000;9.064;2022-08-21T06:48:44;3.77;;;3.20;;
73733;SDS011;62039;50.000;9.064;2022-08-21T06:51:10;3.90;;;3.60;;
73733;SDS011;62039;50.000;9.064;2022-08-21T06:53:37;3.40;;;3.10;;
73733;SDS011;62039;50.000;9.064;2022-08-21T06:56:04;3.57;;;3.27;;
73733;SDS011;62039;50.000;9.064;2022-08-21T06:58:31;3.90;;;3.60;;
73733;SDS011;62039;50.000;9.064;2022-08-21T07:00:59;3.90;;;3.47;;
73733;SDS011;62039;50.000;9.064;2022-08-21T07:03:27;3.50;;;2.90;;
73733;SDS011;62039;50.000;9.064;2022-08-21T07:05:56;4.20;;;3.40;;
73733;SDS011;62039;50.000;9.064;2022-08-21T07:08:23;4.70;;;3.47;;
73733;SDS011;62039;50.000;9.064;2022-08-21T07:10:50;3.70;;;3.30;;
73733;SDS011;62039;50.000;9.064;2022-08-21T07:13:18;4.27;;;3.93;;
73733;SDS011;62039;50.000;9.064;2022-08-21T07:15:45;3.80;;;3.50;;
73733;SDS011;62039;50.000;9.064;2022-08-21T07:18:13;4.73;;;4.10;;
73733;SDS011;62039;50.000;9.064;2022-08-21T07:20:40;3.93;;;3.53;;
73733;SDS011;62039;50.000;9.064;2022-08-21T07:23:08;4.73;;;3.63;;
73733;SDS011;62039;50.000;9.064;2022-08-21T07:25:37;4.60;;;3.60;;
73733;SDS011;62039;50.000;9.064;2022-08-21T07:28:04;4.37;;;3.97;;
73733;SDS011;62039;50.000;9.064;2022-08-21T07:30:33;4.50;;;3.87;;
73733;SDS011;62039;50.000;9.064;2022-08-21T07:33:00;4.13;;;3.73;;
73733;SDS011;62039;50.000;9.064;2022-08-21T07:35:28;4.43;;;3.93;;
73733;SDS011;62039;50.000;9.064;2022-08-21T07:37:54;4.90;;;3.97;;
73733;SDS011;62039;50.000;9.064;2022-08-21T07:40:21;4.23;;;3.60;;
73733;SDS011;62039;50.000;9.064;2022-08-21T07:42:48;4.30;;;3.33;;
73733;SDS011;62039;50.000;9.064;2022-08-21T07:45:15;3.90;;;3.60;;
73733;SDS011;62039;50.000;9.064;2022-08-21T07:47:42;4.43;;;4.00;;
73733;SDS011;62039;50.000;9.064;2022-08-21T07:50:09;4.80;;;3.77;;
73733;SDS011;62039;50.000;9.064;2022-08-21T07:52:37;3.80;;;3.50;;
73733;SDS011;62039;50.000;9.064;2022-08-21T07:55:05;4.03;;;3.50;;
73733;SDS011;62039;50.000;9.064;2022-08-21T07:57:32;5.30;;;3.40;;
73733;SDS011;62039;50.000;9.064;2022-08-21T07:59:58;3.80;;;3.40;;
73733;SDS011;62039;50.000;9.064;2022-08-21T08:02:26;3.90;;;3.60;;
73733;SDS011;62039;50.000;9.064;2022-08-21T08:04:53;3.80;;;3.43;;
73733;SDS011;62039;50.000;9.064;2022-08-21T08:07:20;4.07;;;3.67;;
73733;SDS011;62039;50.000;9.064;2022-08-21T08:09:48;4.53;;;3.03;;
73733;SDS011;62039;50.000;9.064;2022-08-21T08:12:14;4.57;;;3.33;;
73733;SDS011;62039;50.000;9.064;2022-08-21T08:14:41;3.53;;;3.23;;
73733;SDS011;62039;50.000;9.064;2022-08-21T08:17:08;3.67;;;3.30;;
73733;SDS011;62039;50.000;9.064;2022-08-21T08:19:34;3.50;;;3.20;;
73733;SDS011;62039;50.000;9.064;2022-08-21T08:22:01;3.27;;;2.90;;
73733;SDS011;62039;50.000;9.064;2022-08-21T08:24:27;3.93;;;3.53;;
73733;SDS011;62039;50.000;9.064;2022-08-21T08:26:55;3.30;;;3.00;;
73733;SDS011;62039;50.000;9.064;2022-08-21T08:29:22;2.90;;;2.70;;
73733;SDS011;62039;50.000;9.064;2022-08-21T08:31:48;3.30;;;3.07;;
73733;SDS011;62039;50.000;9.064;2022-08-21T08:34:16;3.60;;;3.30;;
73733;SDS011;62039;50.000;9.064;2022-08-21T08:36:50;4.47;;;3.70;;
73733;SDS011;62039;50.000;9.064;2022-08-21T08:39:17;3.37;;;3.07;;
73733;SDS011;62039;50.000;9.064;2022-08-21T08:41:58;3.83;;;3.30;;
73733;SDS011;62039;50.000;9.064;2022-08-21T08:44:54;3.33;;;2.80;;
73733;SDS011;62039;50.000;9.064;2022-08-21T08:47:24;3.07;;;2.77;;
73733;SDS011;62039;50.000;9.064;2022-08-21T08:49:54;4.57;;;2.70;;
73733;SDS011;62039;50.000;9.064;2022-08-21T08:52:26;3.80;;;2.90;;
73733;SDS011;62039;50.000;9.064;2022-08-21T08:54:56;3.90;;;2.87;;
73733;SDS011;62039;50.000;9.064;2022-08-21T08:57:30;2.87;;;2.23;;
73733;SDS011;62039;50.000;9.064;2022-08-21T09:00:00;3.10;;;2.40;;
73733;SDS011;62039;50.000;9.064;2022-08-21T09:02:33;3.90;;;2.83;;
73733;SDS011;62039;50.000;9.064;2022-08-21T09:05:00;2.63;;;2.13;;
73733;SDS011;62039;50.000;9.064;2022-08-21T09:07:29;2.93;;;2.07;;
73733;SDS011;62039;50.000;9.064;2022-08-21T09:10:10;3.40;;;2.20;;
73733;SDS011;62039;50.000;9.064;2022-08-21T09:12:49;2.13;;;1.93;;
73733;SDS011;62039;50.000;9.064;2022-08-21T09:15:24;3.60;;;2.20;;
73733;SDS011;62039;50.000;9.064;2022-08-21T09:17:59;3.07;;;2.20;;
73733;SDS011;62039;50.000;9.064;2022-08-21T09:20:38;2.47;;;1.80;;
73733;SDS011;62039;50.000;9.064;2022-08-21T09:23:14;2.50;;;1.60;;
73733;SDS011;62039;50.000;9.064;2022-08-21T09:25:56;2.73;;;1.67;;
73733;SDS011;62039;50.000;9.064;2022-08-21T09:28:38;2.60;;;2.27;;
73733;SDS011;62039;50.000;9.064;2022-08-21T09:31:06;3.93;;;2.07;;
73733;SDS011;62039;50.000;9.064;2022-08-21T09:33:34;2.30;;;2.03;;
73733;SDS011;62039;50.000;9.064;2022-08-21T09:36:01;2.20;;;1.80;;
73733;SDS011;62039;50.000;9.064;2022-08-21T09:38:29;3.50;;;2.60;;
73733;SDS011;62039;50.000;9.064;2022-08-21T09:40:59;3.30;;;2.80;;
73733;SDS011;62039;50.000;9.064;2022-08-21T09:43:29;4.17;;;3.23;;
73733;SDS011;62039;50.000;9.064;2022-08-21T09:46:10;3.57;;;2.60;;
73733;SDS011;62039;50.000;9.064;2022-08-21T09:48:38;3.13;;;2.27;;
73733;SDS011;62039;50.000;9.064;2022-08-21T09:51:11;3.40;;;2.60;;
73733;SDS011;62039;50.000;9.064;2022-08-21T09:53:43;2.63;;;1.90;;
73733;SDS011;62039;50.000;9.064;2022-08-21T09:56:19;3.33;;;2.57;;
73733;SDS011;62039;50.000;9.064;2022-08-21T09:58:52;4.90;;;2.87;;
73733;SDS011;62039;50.000;9.064;2022-08-21T10:01:21;3.20;;;2.20;;
73733;SDS011;62039;50.000;9.064;2022-08-21T10:03:49;2.53;;;2.10;;
73733;SDS011;62039;50.000;9.064;2022-08-21T10:06:28;3.37;;;2.23;;
73733;SDS011;62039;50.000;9.064;2022-08-21T10:09:03;2.87;;;1.93;;
73733;SDS011;62039;50.000;9.064;2022-08-21T10:11:31;3.73;;;2.53;;
73733;SDS011;62039;50.000;9.064;2022-08-21T10:14:01;2.17;;;1.97;;
73733;SDS011;62039;50.000;9.064;2022-08-21T10:16:39;3.17;;;2.37;;
73733;SDS011;62039;50.000;9.064;2022-08-21T10:19:15;2.80;;;2.20;;
73733;SDS011;62039;50.000;9.064;2022-08-21T10:21:54;3.77;;;2.43;;
73733;SDS011;62039;50.000;9.064;2022-08-21T10:24:28;3.27;;;2.10;;
73733;SDS011;62039;50.000;9.064;2022-08-21T10:27:01;2.03;;;1.80;;
73733;SDS011;62039;50.000;9.064;2022-08-21T10:29:38;2.33;;;1.93;;
73733;SDS011;62039;50.000;9.064;2022-08-21T10:32:14;3.67;;;2.00;;
73733;SDS011;62039;50.000;9.064;2022-08-21T10:34:53;2.03;;;1.80;;
73733;SDS011;62039;50.000;9.064;2022-08-21T10:37:27;2.27;;;2.00;;
73733;SDS011;62039;50.000;9.064;2022-08-21T10:40:05;3.40;;;2.40;;
73733;SDS011;62039;50.000;9.064;2022-08-21T10:42:39;2.43;;;1.60;;
73733;SDS011;62039;50.000;9.064;2022-08-21T10:45:30;1.97;;;1.77;;
73733;SDS011;62039;50.000;9.064;2022-08-21T10:48:07;2.77;;;1.77;;
73733;SDS011;62039;50.000;9.064;2022-08-21T10:50:42;2.73;;;1.93;;
73733;SDS011;62039;50.000;9.064;2022-08-21T10:53:31;2.20;;;2.00;;
73733;SDS011;62039;50.000;9.064;2022-08-21T10:56:12;2.10;;;1.90;;
73733;SDS011;62039;50.000;9.064;2022-08-21T10:58:44;2.70;;;1.93;;
73733;SDS011;62039;50.000;9.064;2022-08-21T11:01:16;1.92;;;1.80;;
73733;SDS011;62039;50.000;9.064;2022-08-21T11:03:53;1.83;;;1.48;;
73733;SDS011;62039;50.000;9.064;2022-08-21T11:06:31;1.98;;;1.77;;
73733;SDS011;62039;50.000;9.064;2022-08-21T11:09:09;3.70;;;1.92;;
73733;SDS011;62039;50.000;9.064;2022-08-21T11:11:41;2.13;;;1.92;;
73733;SDS011;62039;50.000;9.064;2022-08-21T11:14:34;3.45;;;1.90;;
73733;SDS011;62039;50.000;9.064;2022-08-21T11:17:16;2.23;;;1.80;;
73733;SDS011;62039;50.000;9.064;2022-08-21T11:19:50;2.37;;;2.17;;
73733;SDS011;62039;50.000;9.064;2022-08-21T11:22:21;2.37;;;1.90;;
73733;SDS011;62039;50.000;9.064;2022-08-21T11:25:02;1.77;;;1.67;;
73733;SDS011;62039;50.000;9.064;2022-08-21T11:27:36;1.83;;;1.40;;
73733;SDS011;62039;50.000;9.064;2022-08-21T11:30:08;2.40;;;1.73;;
73733;SDS011;62039;50.000;9.064;2022-08-21T11:32:41;2.67;;;2.45;;
73733;SDS011;62039;50.000;9.064;2022-08-21T11:35:22;2.00;;;1.80;;
73733;SDS011;62039;50.000;9.064;2022-08-21T11:37:58;2.63;;;2.10;;
73733;SDS011;62039;50.000;9.064;2022-08-21T11:40:39;2.50;;;2.03;;
73733;SDS011;62039;50.000;9.064;2022-08-21T11:43:14;2.13;;;1.80;;
73733;SDS011;62039;50.000;9.064;2022-08-21T11:45:45;2.47;;;2.17;;
73733;SDS011;62039;50.000;9.064;2022-08-21T11:48:16;3.38;;;2.22;;
73733;SDS011;62039;50.000;9.064;2022-08-21T11:51:00;2.38;;;2.05;;
73733;SDS011;62039;50.000;9.064;2022-08-21T11:53:35;2.40;;;1.60;;
73733;SDS011;62039;50.000;9.064;2022-08-21T11:56:06;2.25;;;1.67;;
73733;SDS011;62039;50.000;9.064;2022-08-21T11:58:37;1.95;;;1.70;;
73733;SDS011;62039;50.000;9.064;2022-08-21T12:01:08;2.42;;;1.80;;
73733;SDS011;62039;50.000;9.064;2022-08-21T12:03:39;4.00;;;2.20;;
73733;SDS011;62039;50.000;9.064;2022-08-21T12:06:11;2.45;;;1.80;;
73733;SDS011;62039;50.000;9.064;2022-08-21T12:08:57;1.47;;;1.37;;
73733;SDS011;62039;50.000;9.064;2022-08-21T12:11:25;2.30;;;1.80;;
73733;SDS011;62039;50.000;9.064;2022-08-21T12:13:57;2.37;;;1.87;;
73733;SDS011;62039;50.000;9.064;2022-08-21T12:16:29;2.50;;;1.70;;
73733;SDS011;62039;50.000;9.064;2022-08-21T12:19:04;1.77;;;1.67;;
73733;SDS011;62039;50.000;9.064;2022-08-21T12:21:34;1.80;;;1.60;;
73733;SDS011;62039;50.000;9.064;2022-08-21T12:24:17;1.73;;;1.60;;
73733;SDS011;62039;50.000;9.064;2022-08-21T12:26:48;2.73;;;1.80;;
73733;SDS011;62039;50.000;9.064;2022-08-21T12:29:21;2.10;;;1.90;;
73733;SDS011;62039;50.000;9.064;2022-08-21T12:31:52;2.53;;;2.05;;
73733;SDS011;62039;50.000;9.064;2022-08-21T12:34:22;2.13;;;1.70;;
73733;SDS011;62039;50.000;9.064;2022-08-21T12:36:56;2.00;;;1.70;;
73733;SDS011;62039;50.000;9.064;2022-08-21T12:39:25;1.65;;;1.50;;
73733;SDS011;62039;50.000;9.064;2022-08-21T12:41:56;1.60;;;1.50;;
73733;SDS011;62039;50.000;9.064;2022-08-21T12:44:28;2.67;;;1.73;;
73733;SDS011;62039;50.000;9.064;2022-08-21T12:47:02;3.47;;;2.00;;
73733;SDS011;62039;50.000;9.064;2022-08-21T12:49:32;3.28;;;1.67;;
73733;SDS011;62039;50.000;9.064;2022-08-21T12:52:06;1.83;;;1.60;;
73733;SDS011;62039;50.000;9.064;2022-08-21T12:54:38;1.65;;;1.38;;
73733;SDS011;62039;50.000;9.064;2022-08-21T12:57:07;2.00;;;1.50;;
73733;SDS011;62039;50.000;9.064;2022-08-21T12:59:39;2.00;;;1.60;;
73733;SDS011;62039;50.000;9.064;2022-08-21T13:02:13;2.03;;;1.70;;
73733;SDS011;62039;50.000;9.064;2022-08-21T13:04:43;2.00;;;1.80;;
73733;SDS011;62039;50.000;9.064;2022-08-21T13:07:13;1.70;;;1.60;;
73733;SDS011;62039;50.000;9.064;2022-08-21T13:09:46;2.17;;;1.67;;
73733;SDS011;62039;50.000;9.064;2022-08-21T13:12:14;1.83;;;1.73;;
73733;SDS011;62039;50.000;9.064;2022-08-21T13:14:42;3.03;;;1.70;;
73733;SDS011;62039;50.000;9.064;2022-08-21T13:17:14;2.13;;;1.40;;
73733;SDS011;62039;50.000;9.064;2022-08-21T13:19:55;2.00;;;1.50;;
73733;SDS011;62039;50.000;9.064;2022-08-21T13:22:25;2.10;;;1.77;;
73733;SDS011;62039;50.000;9.064;2022-08-21T13:25:00;2.93;;;1.67;;
73733;SDS011;62039;50.000;9.064;2022-08-21T13:27:32;2.20;;;1.53;;
73733;SDS011;62039;50.000;9.064;2022-08-21T13:30:00;2.43;;;1.50;;
73733;SDS011;62039;50.000;9.064;2022-08-21T13:32:30;1.90;;;1.70;;
73733;SDS011;62039;50.000;9.064;2022-08-21T13:35:07;2.27;;;1.70;;
73733;SDS011;62039;50.000;9.064;2022-08-21T13:37:36;1.80;;;1.30;;
73733;SDS011;62039;50.000;9.064;2022-08-21T13:40:06;2.80;;;1.87;;
73733;SDS011;62039;50.000;9.064;2022-08-21T13:42:35;2.40;;;1.60;;
73733;SDS011;62039;50.000;9.064;2022-08-21T13:45:10;1.77;;;1.67;;
73733;SDS011;62039;50.000;9.064;2022-08-21T13:47:39;1.70;;;1.60;;
73733;SDS011;62039;50.000;9.064;2022-08-21T13:50:07;2.20;;;1.60;;
73733;SDS011;62039;50.000;9.064;2022-08-21T13:52:44;2.37;;;1.40;;
73733;SDS011;62039;50.000;9.064;2022-08-21T13:55:16;1.53;;;1.33;;
73733;SDS011;62039;50.000;9.064;2022-08-21T13:57:43;1.47;;;1.37;;
73733;SDS011;62039;50.000;9.064;2022-08-21T14:00:11;2.27;;;1.80;;
73733;SDS011;62039;50.000;9.064;2022-08-21T14:02:40;1.67;;;1.37;;
73733;SDS011;62039;50.000;9.064;2022-08-21T14:05:14;2.33;;;1.67;;
73733;SDS011;62039;50.000;9.064;2022-08-21T14:07:42;1.73;;;1.43;;
73733;SDS011;62039;50.000;9.064;2022-08-21T14:10:13;1.77;;;1.50;;
73733;SDS011;62039;50.000;9.064;2022-08-21T14:12:43;1.97;;;1.40;;
73733;SDS011;62039;50.000;9.064;2022-08-21T14:15:12;1.93;;;1.73;;
73733;SDS011;62039;50.000;9.064;2022-08-21T14:17:40;1.73;;;1.47;;
73733;SDS011;62039;50.000;9.064;2022-08-21T14:20:09;1.83;;;1.40;;
73733;SDS011;62039;50.000;9.064;2022-08-21T14:22:38;1.57;;;1.47;;
73733;SDS011;62039;50.000;9.064;2022-08-21T14:25:07;1.77;;;1.67;;
73733;SDS011;62039;50.000;9.064;2022-08-21T14:27:39;2.83;;;1.60;;
73733;SDS011;62039;50.000;9.064;2022-08-21T14:30:11;2.20;;;1.70;;
73733;SDS011;62039;50.000;9.064;2022-08-21T14:32:42;1.80;;;1.57;;
73733;SDS011;62039;50.000;9.064;2022-08-21T14:35:11;1.77;;;1.60;;
73733;SDS011;62039;50.000;9.064;2022-08-21T14:37:40;1.77;;;1.67;;
73733;SDS011;62039;50.000;9.064;2022-08-21T14:40:08;1.63;;;1.30;;
73733;SDS011;62039;50.000;9.064;2022-08-21T14:42:41;2.43;;;1.50;;
73733;SDS011;62039;50.000;9.064;2022-08-21T14:45:10;2.80;;;1.83;;
73733;SDS011;62039;50.000;9.064;2022-08-21T14:47:41;2.87;;;1.80;;
73733;SDS011;62039;50.000;9.064;2022-08-21T14:50:09;2.10;;;1.47;;
73733;SDS011;62039;50.000;9.064;2022-08-21T14:52:35;1.53;;;1.37;;
73733;SDS011;62039;50.000;9.064;2022-08-21T14:55:02;1.80;;;1.43;;
73733;SDS011;62039;50.000;9.064;2022-08-21T14:57:30;1.50;;;1.30;;
73733;SDS011;62039;50.000;9.064;2022-08-21T14:59:58;1.70;;;1.30;;
73733;SDS011;62039;50.000;9.064;2022-08-21T15:02:27;2.17;;;1.50;;
73733;SDS011;62039;50.000;9.064;2022-08-21T15:04:54;1.70;;;1.60;;